createdAt,value
2019-06-20T00:03:12.845Z,61.70
2019-06-20T00:08:18.605Z,62.10
2019-06-20T00:13:25.030Z,61.90
2019-06-20T00:18:30.570Z,61.70
2019-06-20T00:23:36.082Z,61.90
2019-06-20T00:28:41.585Z,61.70
2019-06-20T00:33:47.059Z,61.70
2019-06-20T00:38:52.590Z,61.70
2019-06-20T00:43:58.152Z,61.60
2019-06-20T00:49:03.719Z,61.80
2019-06-20T00:54:09.258Z,61.70
2019-06-20T00:59:14.838Z,61.60
2019-06-20T01:04:20.401Z,61.60
2019-06-20T01:09:25.960Z,61.50
2019-06-20T01:14:31.497Z,61.60
2019-06-20T01:19:36.959Z,61.40
2019-06-20T01:24:42.421Z,61.40
2019-06-20T01:29:47.849Z,61.30
2019-06-20T01:34:53.368Z,61.30
2019-06-20T01:39:58.794Z,61.20
2019-06-20T01:45:06.547Z,61.30
2019-06-20T01:50:12.097Z,61.10
2019-06-20T01:55:17.660Z,60.90
2019-06-20T02:00:45.652Z,61.10
2019-06-20T02:05:51.174Z,60.90
2019-06-20T02:10:56.879Z,60.80
2019-06-20T02:16:02.530Z,60.70
2019-06-20T02:21:08.207Z,60.70
2019-06-20T02:26:13.653Z,60.60
2019-06-20T02:31:19.115Z,60.60
2019-06-20T02:36:24.549Z,60.60
2019-06-20T02:41:30.040Z,60.40
2019-06-20T02:46:35.467Z,60.40
2019-06-20T02:51:40.908Z,60.60
2019-06-20T02:56:46.356Z,60.50
2019-06-20T03:01:51.815Z,60.60
2019-06-20T03:06:57.446Z,60.50
2019-06-20T03:12:02.911Z,60.60
2019-06-20T03:17:08.471Z,60.50
2019-06-20T03:22:14.038Z,60.60
2019-06-20T03:27:19.693Z,60.60
2019-06-20T03:32:25.161Z,60.40
2019-06-20T03:37:30.614Z,60.70
2019-06-20T03:42:36.197Z,60.50
2019-06-20T03:47:41.626Z,60.20
2019-06-20T03:52:48.736Z,60.40
2019-06-20T03:57:54.213Z,60.30
2019-06-20T04:02:59.777Z,60.40
2019-06-20T04:08:05.239Z,60.70
2019-06-20T04:13:10.696Z,60.80
2019-06-20T04:18:16.159Z,60.70
2019-06-20T04:23:21.584Z,60.60
2019-06-20T04:28:28.207Z,61.00
2019-06-20T04:33:33.762Z,61.00
2019-06-20T04:38:39.331Z,61.00
2019-06-20T04:43:44.788Z,60.80
2019-06-20T04:48:50.351Z,60.90
2019-06-20T04:53:55.807Z,61.20
2019-06-20T04:59:01.247Z,61.60
2019-06-20T05:04:06.834Z,61.70
2019-06-20T05:09:12.293Z,61.70
2019-06-20T05:14:17.803Z,61.90
2019-06-20T05:19:23.241Z,62.00
2019-06-20T05:24:28.683Z,62.10
2019-06-20T05:29:34.110Z,62.20
2019-06-20T05:34:39.542Z,62.20
2019-06-20T05:39:45.053Z,62.30
2019-06-20T05:44:50.480Z,62.80
2019-06-20T05:49:55.942Z,62.90
2019-06-20T05:55:01.532Z,63.20
2019-06-20T06:00:11.606Z,63.70
2019-06-20T06:05:17.260Z,63.90
2019-06-20T06:10:23.267Z,64.00
2019-06-20T06:15:29.000Z,64.10
2019-06-20T06:20:34.436Z,63.90
2019-06-20T06:25:42.101Z,63.80
2019-06-20T06:30:47.609Z,63.70
2019-06-20T06:35:53.040Z,64.10
2019-06-20T06:40:58.651Z,63.70
2019-06-20T06:46:04.167Z,63.70
2019-06-20T06:51:09.654Z,63.90
2019-06-20T06:56:15.092Z,64.00
2019-06-20T07:01:20.607Z,64.10
2019-06-20T07:06:26.040Z,64.20
2019-06-20T07:11:31.515Z,64.30
2019-06-20T07:16:37.118Z,64.30
2019-06-20T07:21:42.640Z,64.20
2019-06-20T07:26:48.096Z,64.00
2019-06-20T07:31:53.668Z,64.20
2019-06-20T07:36:59.225Z,64.90
2019-06-20T07:42:05.648Z,63.90
2019-06-20T07:47:17.487Z,63.70
2019-06-20T07:52:18.338Z,63.60
2019-06-20T07:57:23.836Z,63.20
2019-06-20T08:02:29.301Z,63.20
2019-06-20T08:07:34.768Z,63.30
2019-06-20T08:12:40.330Z,63.30
2019-06-20T08:17:45.866Z,63.30
2019-06-20T08:22:51.321Z,63.50
2019-06-20T08:27:57.841Z,64.00
2019-06-20T08:33:10.336Z,64.10
2019-06-20T08:38:11.978Z,64.30
2019-06-20T08:43:17.439Z,64.40
2019-06-20T08:48:22.915Z,64.80
2019-06-20T08:53:28.393Z,65.20
2019-06-20T08:58:33.853Z,65.80
2019-06-20T09:03:39.411Z,66.00
2019-06-20T09:08:44.851Z,66.00
2019-06-20T09:13:50.434Z,66.00
2019-06-20T09:18:56.705Z,66.10
2019-06-20T09:24:02.351Z,66.30
2019-06-20T09:29:08.966Z,66.40
2019-06-20T09:34:14.520Z,66.60
2019-06-20T09:39:20.080Z,66.80
2019-06-20T09:44:25.619Z,66.90
2019-06-20T09:49:32.011Z,67.00
2019-06-20T09:54:37.529Z,67.20
2019-06-20T09:59:56.113Z,67.00
2019-06-20T10:04:50.665Z,66.60
2019-06-20T10:09:56.495Z,66.70
2019-06-20T10:15:03.596Z,66.40
2019-06-20T10:20:09.210Z,66.20
2019-06-20T10:25:14.826Z,66.00
2019-06-20T10:30:22.363Z,65.70
2019-06-20T10:35:27.898Z,65.40
2019-06-20T10:40:33.566Z,65.20
2019-06-20T10:45:40.250Z,65.00
2019-06-20T10:50:46.224Z,64.80
2019-06-20T10:55:51.886Z,64.50
2019-06-20T11:00:57.556Z,64.30
2019-06-20T11:06:03.310Z,64.00
2019-06-20T11:11:08.789Z,63.60
2019-06-20T11:16:14.246Z,63.40
2019-06-20T11:21:19.713Z,63.30
2019-06-20T11:26:25.351Z,63.10
2019-06-20T11:31:30.917Z,63.10
2019-06-20T11:36:37.596Z,63.10
2019-06-20T11:41:43.714Z,63.00
2019-06-20T11:46:49.242Z,63.10
2019-06-20T11:51:54.795Z,63.10
2019-06-20T11:57:00.475Z,63.10
2019-06-20T12:02:06.343Z,64.00
2019-06-20T12:07:11.908Z,63.20
2019-06-20T12:12:17.495Z,63.30
2019-06-20T12:17:23.129Z,63.40
2019-06-20T12:22:28.902Z,63.40
2019-06-20T12:27:34.574Z,63.50
2019-06-20T12:32:40.661Z,63.50
2019-06-20T12:37:47.722Z,63.60
2019-06-20T12:42:53.604Z,63.70
2019-06-20T12:47:59.079Z,64.00
2019-06-20T12:53:04.608Z,64.20
2019-06-20T12:58:10.283Z,64.40
2019-06-20T13:03:15.763Z,64.40
2019-06-20T13:08:21.313Z,64.50
2019-06-20T13:13:26.814Z,64.70
2019-06-20T13:18:32.390Z,64.90
2019-06-20T13:23:39.739Z,64.70
2019-06-20T13:29:01.651Z,64.50
2019-06-20T13:33:52.505Z,66.50
2019-06-20T13:38:58.269Z,68.40
2019-06-20T13:44:04.947Z,68.80
2019-06-20T13:49:11.448Z,69.20
2019-06-20T13:54:17.307Z,69.40
2019-06-20T13:59:22.770Z,69.20
2019-06-20T14:04:28.234Z,71.00
2019-06-20T14:09:33.847Z,71.40
2019-06-20T14:14:41.951Z,71.00
2019-06-20T14:19:46.933Z,71.20
2019-06-20T14:24:53.685Z,72.30
2019-06-20T14:29:59.623Z,72.10
2019-06-20T14:35:06.113Z,72.10
2019-06-20T14:40:11.872Z,72.50
2019-06-20T14:45:18.175Z,72.80
2019-06-20T14:50:23.713Z,72.70
2019-06-20T14:55:29.539Z,72.50
2019-06-20T15:00:35.212Z,72.30
2019-06-20T15:05:40.808Z,72.40
2019-06-20T15:10:48.064Z,72.50
2019-06-20T15:15:53.475Z,72.90
2019-06-20T15:20:59.486Z,73.10
2019-06-20T15:26:05.458Z,73.10
2019-06-20T15:31:10.998Z,73.50
2019-06-20T15:36:16.470Z,73.50
2019-06-20T15:41:25.516Z,73.20
2019-06-20T15:46:31.927Z,72.80
2019-06-20T15:51:37.478Z,72.30
2019-06-20T15:56:42.904Z,71.90
2019-06-20T16:01:48.359Z,71.40
2019-06-20T16:06:53.880Z,71.00
2019-06-20T16:11:59.418Z,70.70
2019-06-20T16:17:04.999Z,70.30
2019-06-20T16:22:10.669Z,70.40
2019-06-20T16:27:16.309Z,70.20
2019-06-20T16:32:21.866Z,70.10
2019-06-20T16:37:27.535Z,70.30
2019-06-20T16:42:32.996Z,70.20
2019-06-20T16:47:38.674Z,70.20
2019-06-20T16:52:44.118Z,69.90
2019-06-20T16:57:49.548Z,69.80
2019-06-20T17:02:55.396Z,69.70
2019-06-20T17:08:00.893Z,69.50
2019-06-20T17:13:06.621Z,69.30
2019-06-20T17:18:12.181Z,69.20
2019-06-20T17:23:18.247Z,69.20
2019-06-20T17:28:23.991Z,69.10
2019-06-20T17:33:29.558Z,69.20
2019-06-20T17:38:35.199Z,69.20
2019-06-20T17:43:41.898Z,69.10
2019-06-20T17:48:47.552Z,69.10
2019-06-20T17:53:53.211Z,69.10
2019-06-20T17:58:58.779Z,69.40
2019-06-20T18:04:13.341Z,69.60
2019-06-20T18:09:11.465Z,69.50
2019-06-20T18:14:16.993Z,69.50
2019-06-20T18:19:23.392Z,69.40
2019-06-20T18:24:28.828Z,69.50
2019-06-20T18:29:34.276Z,69.70
2019-06-20T18:34:39.862Z,69.60
2019-06-20T18:39:45.290Z,69.60
2019-06-20T18:44:50.784Z,69.60
2019-06-20T18:49:56.253Z,69.70
2019-06-20T18:55:01.804Z,69.80
2019-06-20T19:00:09.270Z,70.00
2019-06-20T19:05:15.396Z,70.10
2019-06-20T19:10:24.227Z,70.30
2019-06-20T19:15:29.696Z,70.50
2019-06-20T19:20:35.169Z,70.50
2019-06-20T19:25:41.169Z,70.50
2019-06-20T19:30:49.479Z,70.30
2019-06-20T19:35:55.068Z,70.20
2019-06-20T19:41:00.518Z,70.10
2019-06-20T19:46:06.033Z,70.10
2019-06-20T19:51:11.588Z,70.00
2019-06-20T19:56:17.147Z,70.10
2019-06-20T20:01:22.658Z,70.60
2019-06-20T20:06:28.170Z,70.80
2019-06-20T20:11:33.734Z,71.00
2019-06-20T20:16:39.174Z,71.40
2019-06-20T20:21:44.758Z,71.70
2019-06-20T20:26:50.223Z,71.10
2019-06-20T20:31:55.778Z,71.10
2019-06-20T20:37:01.246Z,71.00
2019-06-20T20:42:07.004Z,72.30
2019-06-20T20:47:12.517Z,71.30
2019-06-20T20:52:17.945Z,70.90
2019-06-20T20:57:23.385Z,70.80
2019-06-20T21:02:28.897Z,70.40
2019-06-20T21:07:34.341Z,70.30
2019-06-20T21:12:39.834Z,70.00
2019-06-20T21:17:45.323Z,69.80
2019-06-20T21:22:50.878Z,69.70
2019-06-20T21:27:56.374Z,69.70
2019-06-20T21:33:01.918Z,69.60
2019-06-20T21:38:07.465Z,69.50
2019-06-20T21:48:31.943Z,69.20
2019-06-20T21:53:37.504Z,69.30
2019-06-20T21:58:42.989Z,69.30
2019-06-20T22:03:48.588Z,69.40
2019-06-20T22:08:54.085Z,70.20
2019-06-20T22:13:59.625Z,69.40
2019-06-20T22:19:05.322Z,69.30
2019-06-20T22:24:10.782Z,69.30
2019-06-20T22:29:16.334Z,69.50
2019-06-20T22:34:21.862Z,69.10
2019-06-20T22:39:27.467Z,69.10
2019-06-20T22:44:33.114Z,69.10
2019-06-20T22:49:38.685Z,69.10
2019-06-20T22:54:44.138Z,69.60
2019-06-20T22:59:49.593Z,69.30
2019-06-20T23:04:55.056Z,69.20
2019-06-20T23:10:09.623Z,70.10
2019-06-20T23:15:08.396Z,69.30
2019-06-20T23:20:14.803Z,69.00
2019-06-20T23:25:20.491Z,68.80
2019-06-20T23:30:26.041Z,68.80
2019-06-20T23:35:31.508Z,68.70
2019-06-20T23:40:36.965Z,68.70
2019-06-20T23:45:42.430Z,68.50
2019-06-20T23:50:47.887Z,68.40
2019-06-20T23:55:53.573Z,68.30
